createdAt,value
2022-10-09T00:01:12.385Z,3.65
2022-10-09T00:03:41.129Z,3.10
2022-10-09T00:06:09.359Z,3.72
2022-10-09T00:08:39.390Z,3.95
2022-10-09T00:11:07.312Z,3.67
2022-10-09T00:13:34.063Z,3.55
2022-10-09T00:16:04.433Z,3.40
2022-10-09T00:18:30.942Z,4.57
2022-10-09T00:20:57.521Z,3.58
2022-10-09T00:23:24.013Z,3.78
2022-10-09T00:25:52.847Z,3.72
2022-10-09T00:28:20.567Z,4.37
2022-10-09T00:30:47.193Z,4.07
2022-10-09T00:33:14.037Z,3.50
2022-10-09T00:35:40.933Z,4.03
2022-10-09T00:38:07.969Z,3.85
2022-10-09T00:40:36.059Z,4.33
2022-10-09T00:43:03.717Z,3.38
2022-10-09T00:45:31.477Z,4.35
2022-10-09T00:48:01.650Z,3.90
2022-10-09T00:50:40.369Z,3.53
2022-10-09T00:53:08.030Z,4.47
2022-10-09T00:55:35.824Z,4.13
2022-10-09T00:58:02.518Z,4.20
2022-10-09T01:00:29.544Z,3.70
2022-10-09T01:02:56.268Z,4.22
2022-10-09T01:05:34.909Z,4.07
2022-10-09T01:08:22.214Z,4.13
2022-10-09T01:11:22.822Z,4.70
2022-10-09T01:14:00.841Z,3.80
2022-10-09T01:16:31.042Z,4.50
2022-10-09T01:19:05.421Z,4.83
2022-10-09T01:22:13.463Z,4.93
2022-10-09T01:24:45.721Z,4.00
2022-10-09T01:27:21.931Z,3.55
2022-10-09T01:29:59.159Z,4.13
2022-10-09T01:32:32.534Z,4.37
2022-10-09T01:35:00.351Z,5.28
2022-10-09T01:37:29.256Z,4.15
2022-10-09T01:39:56.554Z,4.82
2022-10-09T01:42:26.191Z,5.00
2022-10-09T01:44:52.686Z,4.77
2022-10-09T01:47:21.368Z,4.68
2022-10-09T01:50:24.964Z,5.30
2022-10-09T01:52:59.492Z,5.75
2022-10-09T01:55:38.131Z,5.32
2022-10-09T01:58:15.485Z,4.93
2022-10-09T02:01:02.774Z,5.55
2022-10-09T02:03:30.488Z,5.45
2022-10-09T02:05:58.150Z,5.45
2022-10-09T02:08:25.909Z,5.32
2022-10-09T02:10:56.383Z,4.97
2022-10-09T02:13:23.427Z,5.43
2022-10-09T02:16:00.508Z,6.35
2022-10-09T02:18:37.449Z,5.40
2022-10-09T02:21:11.217Z,5.18
2022-10-09T02:23:40.158Z,5.97
2022-10-09T02:26:07.156Z,6.43
2022-10-09T02:28:33.771Z,6.25
2022-10-09T02:31:18.785Z,6.25
2022-10-09T02:33:45.392Z,6.72
2022-10-09T02:36:11.908Z,5.60
2022-10-09T02:38:38.371Z,6.80
2022-10-09T02:41:04.947Z,6.00
2022-10-09T02:43:31.433Z,6.60
2022-10-09T02:45:58.177Z,7.60
2022-10-09T02:48:24.747Z,6.03
2022-10-09T02:50:51.213Z,6.68
2022-10-09T02:53:17.718Z,6.57
2022-10-09T02:55:44.224Z,7.38
2022-10-09T02:58:10.770Z,6.90
2022-10-09T03:00:38.325Z,6.40
2022-10-09T03:03:04.921Z,6.00
2022-10-09T03:05:31.424Z,7.15
2022-10-09T03:07:58.671Z,6.53
2022-10-09T03:10:25.158Z,5.95
2022-10-09T03:12:51.818Z,6.40
2022-10-09T03:15:18.410Z,6.20
2022-10-09T03:17:44.862Z,7.18
2022-10-09T03:20:11.385Z,6.47
2022-10-09T03:22:37.876Z,5.95
2022-10-09T03:25:04.637Z,6.30
2022-10-09T03:27:31.103Z,6.45
2022-10-09T03:29:58.703Z,5.45
2022-10-09T03:32:25.757Z,7.10
2022-10-09T03:34:52.299Z,6.63
2022-10-09T03:37:18.783Z,6.23
2022-10-09T03:39:45.228Z,7.00
2022-10-09T03:42:11.789Z,6.03
2022-10-09T03:44:38.296Z,6.43
2022-10-09T03:47:04.846Z,6.72
2022-10-09T03:49:31.335Z,6.63
2022-10-09T03:51:57.772Z,6.63
2022-10-09T03:54:24.260Z,6.70
2022-10-09T03:56:50.826Z,6.97
2022-10-09T03:59:17.281Z,6.55
2022-10-09T04:01:43.756Z,6.37
2022-10-09T04:04:10.190Z,7.18
2022-10-09T04:06:36.725Z,6.35
2022-10-09T04:09:03.276Z,6.05
2022-10-09T04:11:29.807Z,7.25
2022-10-09T04:13:56.265Z,6.20
2022-10-09T04:16:22.867Z,6.25
2022-10-09T04:18:49.364Z,5.80
2022-10-09T04:21:15.893Z,6.97
2022-10-09T04:23:42.459Z,7.78
2022-10-09T04:26:11.900Z,7.50
2022-10-09T04:28:39.041Z,5.90
2022-10-09T04:31:05.650Z,6.53
2022-10-09T04:33:32.314Z,6.47
2022-10-09T04:35:58.803Z,6.18
2022-10-09T04:38:25.770Z,6.37
2022-10-09T04:40:59.545Z,5.78
2022-10-09T04:43:26.700Z,7.38
2022-10-09T04:45:53.883Z,6.45
2022-10-09T04:48:20.627Z,6.38
2022-10-09T04:50:47.544Z,6.43
2022-10-09T04:53:14.955Z,5.95
2022-10-09T04:55:43.333Z,5.93
2022-10-09T04:58:12.105Z,6.00
2022-10-09T05:00:43.056Z,7.10
2022-10-09T05:03:10.700Z,6.17
2022-10-09T05:05:37.456Z,6.10
2022-10-09T05:08:04.065Z,6.00
2022-10-09T05:10:32.286Z,6.25
2022-10-09T05:12:59.436Z,6.95
2022-10-09T05:15:25.919Z,6.10
2022-10-09T05:17:52.414Z,6.32
2022-10-09T05:20:18.943Z,6.35
2022-10-09T05:22:47.284Z,5.78
2022-10-09T05:25:14.791Z,6.47
2022-10-09T05:27:41.337Z,7.03
2022-10-09T05:30:08.934Z,5.60
2022-10-09T05:32:35.565Z,6.20
2022-10-09T05:35:02.048Z,6.15
2022-10-09T05:37:28.575Z,6.47
2022-10-09T05:39:55.176Z,6.03
2022-10-09T05:42:21.638Z,5.75
2022-10-09T05:44:48.173Z,6.00
2022-10-09T05:47:17.857Z,6.47
2022-10-09T05:49:44.330Z,6.43
2022-10-09T05:52:10.838Z,7.10
2022-10-09T05:54:37.297Z,5.80
2022-10-09T05:57:04.950Z,5.70
2022-10-09T05:59:31.482Z,6.40
2022-10-09T06:01:59.098Z,6.28
2022-10-09T06:04:25.845Z,6.50
2022-10-09T06:06:52.807Z,5.88
2022-10-09T06:09:23.102Z,6.72
2022-10-09T06:11:50.930Z,6.43
2022-10-09T06:14:17.808Z,6.70
2022-10-09T06:16:45.605Z,6.97
2022-10-09T06:19:14.507Z,6.70
2022-10-09T06:21:41.261Z,7.72
2022-10-09T06:24:08.333Z,7.05
2022-10-09T06:26:35.053Z,7.05
2022-10-09T06:29:03.077Z,5.83
2022-10-09T06:31:32.076Z,6.60
2022-10-09T06:34:00.890Z,6.55
2022-10-09T06:36:29.905Z,5.95
2022-10-09T06:38:58.759Z,7.80
2022-10-09T06:41:26.926Z,6.87
2022-10-09T06:44:01.870Z,8.02
2022-10-09T06:46:32.748Z,7.40
2022-10-09T06:49:00.810Z,7.32
2022-10-09T06:51:29.030Z,8.00
2022-10-09T06:53:57.539Z,7.40
2022-10-09T06:56:26.092Z,8.00
2022-10-09T06:58:52.975Z,8.05
2022-10-09T07:01:24.433Z,7.95
2022-10-09T07:03:56.932Z,7.60
2022-10-09T07:06:26.200Z,8.30
2022-10-09T07:08:55.355Z,8.10
2022-10-09T07:11:33.607Z,7.72
2022-10-09T07:14:03.432Z,7.05
2022-10-09T07:16:36.256Z,9.40
2022-10-09T07:19:07.355Z,9.30
2022-10-09T07:21:35.106Z,10.90
2022-10-09T07:24:02.656Z,10.27
2022-10-09T07:26:30.903Z,10.68
2022-10-09T07:28:57.978Z,9.68
2022-10-09T07:31:24.977Z,8.83
2022-10-09T07:33:53.432Z,9.30
2022-10-09T07:36:20.460Z,8.80
2022-10-09T07:38:52.192Z,9.02
2022-10-09T07:41:19.952Z,8.68
2022-10-09T07:43:46.510Z,8.20
2022-10-09T07:46:18.478Z,8.90
2022-10-09T07:48:45.977Z,9.00
2022-10-09T07:51:23.577Z,8.60
2022-10-09T07:53:50.673Z,8.80
2022-10-09T07:56:19.636Z,7.63
2022-10-09T07:58:51.042Z,7.82
2022-10-09T08:01:20.118Z,8.50
2022-10-09T08:03:47.537Z,7.85
2022-10-09T08:06:14.305Z,7.75
2022-10-09T08:08:40.930Z,7.90
2022-10-09T08:11:12.457Z,7.75
2022-10-09T08:13:41.248Z,8.20
2022-10-09T08:16:07.927Z,8.35
2022-10-09T08:18:35.211Z,7.82
2022-10-09T08:21:05.006Z,7.17
2022-10-09T08:23:31.673Z,7.60
2022-10-09T08:25:59.059Z,8.05
2022-10-09T08:28:25.762Z,7.30
2022-10-09T08:30:52.462Z,8.35
2022-10-09T08:33:21.926Z,7.03
2022-10-09T08:35:49.844Z,7.28
2022-10-09T08:38:37.492Z,7.75
2022-10-09T08:41:06.184Z,6.95
2022-10-09T08:43:36.634Z,6.32
2022-10-09T08:46:26.037Z,6.07
2022-10-09T08:48:53.920Z,5.47
2022-10-09T08:51:27.023Z,5.95
2022-10-09T08:53:59.982Z,5.13
2022-10-09T08:56:27.337Z,5.22
2022-10-09T08:58:54.000Z,5.30
2022-10-09T09:01:29.440Z,5.35
2022-10-09T09:04:14.699Z,5.28
2022-10-09T09:07:01.521Z,5.85
2022-10-09T09:09:40.360Z,5.50
2022-10-09T09:12:27.681Z,4.90
2022-10-09T09:15:04.474Z,4.80
2022-10-09T09:17:38.062Z,5.35
2022-10-09T09:20:17.610Z,5.05
2022-10-09T09:22:49.155Z,4.95
2022-10-09T09:25:28.447Z,4.83
2022-10-09T09:28:00.408Z,4.50
2022-10-09T09:30:50.571Z,5.68
2022-10-09T09:33:29.750Z,4.82
2022-10-09T09:36:18.285Z,4.70
2022-10-09T09:39:24.959Z,4.23
2022-10-09T09:41:31.425Z,4.50
2022-10-09T09:43:57.933Z,4.15
2022-10-09T09:46:28.977Z,4.25
2022-10-09T09:48:55.648Z,5.00
2022-10-09T09:51:29.212Z,4.47
2022-10-09T09:54:25.944Z,4.65
2022-10-09T09:57:18.342Z,4.55
2022-10-09T09:59:45.378Z,3.85
2022-10-09T10:02:12.395Z,3.90
2022-10-09T10:04:49.369Z,4.97
2022-10-09T10:07:30.999Z,4.95
2022-10-09T10:10:09.383Z,4.10
2022-10-09T10:12:57.220Z,4.95
2022-10-09T10:15:29.462Z,4.45
2022-10-09T10:18:00.905Z,3.73
2022-10-09T10:20:28.932Z,3.67
2022-10-09T10:22:57.905Z,4.53
2022-10-09T10:25:32.097Z,3.30
2022-10-09T10:28:11.509Z,3.83
2022-10-09T10:30:38.909Z,2.97
2022-10-09T10:33:19.271Z,3.35
2022-10-09T10:35:49.194Z,3.60
2022-10-09T10:38:25.464Z,4.07
2022-10-09T10:41:29.402Z,3.17
2022-10-09T10:44:23.060Z,3.10
2022-10-09T10:46:58.762Z,3.33
2022-10-09T10:49:28.415Z,3.42
2022-10-09T10:52:00.965Z,3.13
2022-10-09T10:54:39.765Z,3.58
2022-10-09T10:57:24.143Z,3.40
2022-10-09T10:59:56.901Z,3.00
2022-10-09T11:02:58.407Z,3.10
2022-10-09T11:05:27.738Z,3.10
2022-10-09T11:08:00.502Z,2.70
2022-10-09T11:10:35.876Z,3.33
2022-10-09T11:13:19.806Z,2.70
2022-10-09T11:16:14.202Z,2.90
2022-10-09T11:18:43.516Z,2.20
2022-10-09T11:21:31.171Z,2.38
2022-10-09T11:24:31.809Z,2.00
2022-10-09T11:27:21.367Z,2.40
2022-10-09T11:30:09.753Z,1.80
2022-10-09T11:32:51.486Z,2.03
2022-10-09T11:35:23.106Z,2.05
2022-10-09T11:38:08.119Z,1.70
2022-10-09T11:40:42.787Z,1.98
2022-10-09T11:43:24.563Z,1.75
2022-10-09T11:46:09.630Z,2.15
2022-10-09T11:48:48.585Z,1.98
2022-10-09T11:51:28.688Z,2.00
2022-10-09T11:53:55.450Z,3.20
2022-10-09T11:56:24.546Z,2.22
2022-10-09T11:59:03.893Z,2.00
2022-10-09T12:01:39.067Z,2.15
2022-10-09T12:04:08.459Z,2.57
2022-10-09T12:06:59.204Z,2.22
2022-10-09T12:09:34.867Z,2.25
2022-10-09T12:12:07.199Z,2.08
2022-10-09T12:14:36.805Z,1.98
2022-10-09T12:17:23.583Z,2.07
2022-10-09T12:19:54.520Z,2.90
2022-10-09T12:22:30.541Z,2.08
2022-10-09T12:25:03.603Z,2.25
2022-10-09T12:27:40.346Z,2.80
2022-10-09T12:30:13.623Z,2.23
2022-10-09T12:32:55.043Z,2.20
2022-10-09T12:35:25.818Z,2.25
2022-10-09T12:37:52.505Z,2.10
2022-10-09T12:40:25.585Z,2.80
2022-10-09T12:42:53.927Z,2.53
2022-10-09T12:45:31.743Z,2.47
2022-10-09T12:48:08.078Z,2.45
2022-10-09T12:50:35.522Z,2.25
2022-10-09T12:53:06.074Z,2.03
2022-10-09T12:55:35.881Z,2.53
2022-10-09T12:58:27.561Z,2.90
2022-10-09T13:00:56.976Z,2.20
2022-10-09T13:03:35.542Z,2.17
2022-10-09T13:06:15.461Z,2.00
2022-10-09T13:08:42.249Z,2.33
2022-10-09T13:11:08.700Z,2.60
2022-10-09T13:13:35.491Z,2.15
2022-10-09T13:16:11.137Z,1.92
2022-10-09T13:18:38.337Z,1.70
2022-10-09T13:21:22.893Z,1.47
2022-10-09T13:23:49.402Z,2.53
2022-10-09T13:26:24.240Z,1.90
2022-10-09T13:28:51.391Z,2.25
2022-10-09T13:31:19.152Z,1.90
2022-10-09T13:33:47.135Z,1.60
2022-10-09T13:36:15.233Z,1.67
2022-10-09T13:38:42.132Z,1.50
2022-10-09T13:41:20.356Z,1.73
2022-10-09T13:43:47.902Z,1.80
2022-10-09T13:46:16.013Z,2.00
2022-10-09T13:48:43.102Z,1.52
2022-10-09T13:51:09.765Z,1.63
2022-10-09T13:53:36.337Z,1.73
2022-10-09T13:56:03.178Z,1.75
2022-10-09T13:58:29.800Z,2.20
2022-10-09T14:00:56.523Z,1.40
2022-10-09T14:03:23.030Z,2.05
2022-10-09T14:05:49.786Z,1.70
2022-10-09T14:08:16.310Z,1.73
2022-10-09T14:10:43.971Z,1.60
2022-10-09T14:13:11.057Z,1.48
2022-10-09T14:15:41.592Z,1.98
2022-10-09T14:18:09.010Z,1.63
2022-10-09T14:20:35.762Z,1.98
2022-10-09T14:23:02.500Z,1.17
2022-10-09T14:25:29.242Z,1.70
2022-10-09T14:27:55.882Z,1.30
2022-10-09T14:30:22.521Z,1.27
2022-10-09T14:32:49.368Z,2.00
2022-10-09T14:35:19.340Z,1.20
2022-10-09T14:37:47.857Z,1.08
2022-10-09T14:40:14.423Z,1.52
2022-10-09T14:42:41.081Z,1.27
2022-10-09T14:45:09.103Z,1.83
2022-10-09T14:47:35.716Z,1.13
2022-10-09T14:50:02.276Z,1.38
2022-10-09T14:52:28.826Z,1.23
2022-10-09T14:54:55.336Z,1.38
2022-10-09T14:57:22.071Z,1.80
2022-10-09T14:59:48.550Z,1.30
2022-10-09T15:02:16.281Z,1.58
2022-10-09T15:04:42.883Z,2.28
2022-10-09T15:07:09.435Z,1.52
2022-10-09T15:09:35.928Z,1.73
2022-10-09T15:12:02.400Z,1.40
2022-10-09T15:14:29.147Z,1.50
2022-10-09T15:16:55.686Z,1.48
2022-10-09T15:19:22.230Z,1.40
2022-10-09T15:21:48.769Z,1.63
2022-10-09T15:24:15.346Z,1.30
2022-10-09T15:26:42.040Z,1.48
2022-10-09T15:29:09.083Z,1.60
2022-10-09T15:31:38.602Z,1.70
2022-10-09T15:34:07.511Z,1.70
2022-10-09T15:36:36.883Z,1.27
2022-10-09T15:39:06.061Z,1.77
2022-10-09T15:41:35.497Z,1.45
2022-10-09T15:44:06.348Z,1.73
2022-10-09T15:46:33.041Z,1.13
2022-10-09T15:48:59.727Z,1.50
2022-10-09T15:51:26.626Z,1.30
2022-10-09T15:53:53.207Z,1.75
2022-10-09T15:56:23.132Z,1.63
2022-10-09T15:58:50.586Z,1.80
2022-10-09T16:01:18.341Z,1.60
2022-10-09T16:03:45.476Z,1.65
2022-10-09T16:06:14.638Z,1.60
2022-10-09T16:08:41.953Z,1.65
2022-10-09T16:11:11.589Z,1.70
2022-10-09T16:13:40.066Z,1.80
2022-10-09T16:16:09.519Z,1.65
2022-10-09T16:18:36.145Z,2.25
2022-10-09T16:21:14.347Z,2.13
2022-10-09T16:23:42.177Z,2.13
2022-10-09T16:26:09.096Z,2.00
2022-10-09T16:28:35.860Z,3.08
2022-10-09T16:31:02.983Z,2.80
2022-10-09T16:33:29.650Z,2.85
2022-10-09T16:36:07.228Z,2.50
2022-10-09T16:38:33.798Z,2.07
2022-10-09T16:41:02.535Z,2.13
2022-10-09T16:43:32.554Z,2.40
2022-10-09T16:46:11.417Z,2.42
2022-10-09T16:48:38.117Z,2.50
2022-10-09T16:51:09.526Z,2.30
2022-10-09T16:53:36.069Z,2.47
2022-10-09T16:56:16.263Z,2.85
2022-10-09T16:58:43.879Z,2.85
2022-10-09T17:01:11.229Z,3.97
2022-10-09T17:03:40.599Z,3.40
2022-10-09T17:06:16.148Z,3.50
2022-10-09T17:08:42.669Z,3.28
2022-10-09T17:11:11.851Z,3.70
2022-10-09T17:13:38.578Z,4.30
2022-10-09T17:16:15.710Z,3.63
2022-10-09T17:18:45.072Z,4.10
2022-10-09T17:21:16.510Z,4.95
2022-10-09T17:23:43.290Z,4.68
2022-10-09T17:26:15.466Z,4.35
2022-10-09T17:28:43.075Z,4.20
2022-10-09T17:31:14.188Z,3.92
2022-10-09T17:33:42.939Z,3.97
2022-10-09T17:36:11.111Z,3.90
2022-10-09T17:38:37.823Z,4.18
2022-10-09T17:41:05.586Z,3.83
2022-10-09T17:43:32.764Z,4.18
2022-10-09T17:46:00.588Z,7.25
2022-10-09T17:48:28.026Z,4.97
2022-10-09T17:50:57.917Z,5.40
2022-10-09T17:53:25.037Z,5.27
2022-10-09T17:55:54.143Z,5.35
2022-10-09T17:58:22.196Z,4.72
2022-10-09T18:00:49.759Z,4.78
2022-10-09T18:03:17.519Z,4.38
2022-10-09T18:05:46.324Z,3.60
2022-10-09T18:08:13.948Z,4.20
2022-10-09T18:10:40.562Z,3.92
2022-10-09T18:13:08.517Z,4.93
2022-10-09T18:15:39.885Z,4.95
2022-10-09T18:18:06.832Z,4.60
2022-10-09T18:20:34.770Z,5.63
2022-10-09T18:23:01.346Z,5.70
2022-10-09T18:25:27.879Z,5.90
2022-10-09T18:27:54.547Z,7.65
2022-10-09T18:30:21.144Z,8.83
2022-10-09T18:32:48.775Z,9.05
2022-10-09T18:35:15.598Z,6.40
2022-10-09T18:37:42.103Z,6.05
2022-10-09T18:40:08.888Z,6.40
2022-10-09T18:42:35.787Z,7.13
2022-10-09T18:45:03.196Z,7.55
2022-10-09T18:47:33.508Z,6.85
2022-10-09T18:50:02.751Z,5.75
2022-10-09T18:52:30.301Z,5.25
2022-10-09T18:54:58.711Z,5.00
2022-10-09T18:57:26.750Z,5.32
2022-10-09T18:59:55.527Z,5.47
2022-10-09T19:02:26.315Z,4.68
2022-10-09T19:04:54.733Z,4.22
2022-10-09T19:07:21.315Z,5.50
2022-10-09T19:09:56.320Z,5.25
2022-10-09T19:12:24.482Z,4.10
2022-10-09T19:14:51.358Z,4.30
2022-10-09T19:17:17.934Z,4.38
2022-10-09T19:19:44.522Z,3.70
2022-10-09T19:22:16.466Z,4.00
2022-10-09T19:24:44.827Z,4.43
2022-10-09T19:27:11.562Z,3.53
2022-10-09T19:29:38.315Z,3.88
2022-10-09T19:32:04.847Z,4.30
2022-10-09T19:34:31.775Z,4.13
2022-10-09T19:36:58.595Z,3.90
2022-10-09T19:39:25.233Z,3.90
2022-10-09T19:41:51.848Z,3.75
2022-10-09T19:44:18.673Z,4.53
2022-10-09T19:46:45.836Z,4.45
2022-10-09T19:49:12.372Z,3.72
2022-10-09T19:51:39.493Z,4.15
2022-10-09T19:54:07.628Z,4.07
2022-10-09T19:56:35.347Z,3.87
2022-10-09T19:59:05.197Z,3.97
2022-10-09T20:01:35.243Z,4.38
2022-10-09T20:04:07.559Z,4.22
2022-10-09T20:06:37.078Z,4.18
2022-10-09T20:09:04.918Z,3.80
2022-10-09T20:11:31.465Z,3.53
2022-10-09T20:13:58.796Z,4.72
2022-10-09T20:16:25.873Z,4.03
2022-10-09T20:18:54.579Z,3.90
2022-10-09T20:21:21.154Z,4.10
2022-10-09T20:23:47.670Z,4.68
2022-10-09T20:26:17.869Z,4.30
2022-10-09T20:28:44.942Z,4.47
2022-10-09T20:31:18.030Z,4.43
2022-10-09T20:33:45.914Z,4.20
2022-10-09T20:36:25.965Z,4.40
2022-10-09T20:38:56.066Z,4.97
2022-10-09T20:41:22.871Z,4.32
2022-10-09T20:43:53.726Z,4.68
2022-10-09T20:46:21.365Z,4.77
2022-10-09T20:48:48.296Z,4.20
2022-10-09T20:51:15.342Z,4.68
2022-10-09T20:53:42.039Z,4.20
2022-10-09T20:56:11.638Z,4.95
2022-10-09T20:58:39.177Z,5.27
2022-10-09T21:01:07.416Z,6.60
2022-10-09T21:03:35.621Z,7.80
2022-10-09T21:06:07.174Z,6.90
2022-10-09T21:08:33.881Z,6.97
2022-10-09T21:11:00.587Z,6.50
2022-10-09T21:13:27.131Z,6.88
2022-10-09T21:15:53.953Z,7.10
2022-10-09T21:18:20.479Z,6.80
2022-10-09T21:20:48.366Z,7.03
2022-10-09T21:23:17.852Z,6.47
2022-10-09T21:25:49.860Z,6.45
2022-10-09T21:28:18.455Z,5.88
2022-10-09T21:30:45.055Z,5.70
2022-10-09T21:33:12.139Z,6.50
2022-10-09T21:35:47.228Z,5.57
2022-10-09T21:38:17.484Z,5.22
2022-10-09T21:40:44.211Z,4.82
2022-10-09T21:43:10.831Z,5.90
2022-10-09T21:45:39.087Z,4.82
2022-10-09T21:48:06.658Z,5.40
2022-10-09T21:50:34.597Z,5.50
2022-10-09T21:53:01.084Z,5.32
2022-10-09T21:55:27.650Z,5.18
2022-10-09T21:57:54.502Z,5.00
2022-10-09T22:00:21.452Z,5.07
2022-10-09T22:02:48.220Z,5.50
2022-10-09T22:05:15.003Z,4.97
2022-10-09T22:07:41.654Z,4.85
2022-10-09T22:10:08.591Z,5.43
2022-10-09T22:12:35.188Z,4.73
2022-10-09T22:15:01.749Z,5.30
2022-10-09T22:17:28.261Z,5.47
2022-10-09T22:19:54.753Z,5.32
2022-10-09T22:22:23.719Z,5.55
2022-10-09T22:24:53.030Z,5.10
2022-10-09T22:27:19.946Z,4.95
2022-10-09T22:29:46.466Z,5.45
2022-10-09T22:32:12.924Z,4.82
2022-10-09T22:34:39.449Z,5.72
2022-10-09T22:37:05.913Z,5.60
2022-10-09T22:39:32.962Z,5.63
2022-10-09T22:41:59.427Z,5.93
2022-10-09T22:44:25.923Z,5.43
2022-10-09T22:46:52.389Z,5.90
2022-10-09T22:49:18.941Z,5.40
2022-10-09T22:51:45.876Z,5.45
2022-10-09T22:54:13.070Z,5.03
2022-10-09T22:56:42.250Z,5.55
2022-10-09T22:59:11.567Z,5.88
2022-10-09T23:01:40.645Z,4.93
2022-10-09T23:04:11.318Z,5.80
2022-10-09T23:06:38.282Z,5.70
2022-10-09T23:09:06.622Z,5.40
2022-10-09T23:11:33.305Z,5.88
2022-10-09T23:14:00.298Z,5.23
2022-10-09T23:16:28.544Z,5.15
2022-10-09T23:18:57.687Z,5.65
2022-10-09T23:21:24.510Z,5.45
2022-10-09T23:23:51.952Z,5.25
2022-10-09T23:26:24.176Z,5.20
2022-10-09T23:28:56.211Z,5.13
2022-10-09T23:31:23.478Z,5.60
2022-10-09T23:33:50.044Z,5.55
2022-10-09T23:36:20.311Z,5.35
2022-10-09T23:38:47.307Z,4.90
2022-10-09T23:41:17.962Z,5.68
2022-10-09T23:43:45.270Z,6.22
2022-10-09T23:46:20.394Z,4.93
2022-10-09T23:48:47.894Z,5.68
2022-10-09T23:51:14.930Z,6.27
2022-10-09T23:53:42.156Z,5.38
2022-10-09T23:56:38.066Z,5.35
2022-10-09T23:59:08.581Z,5.28
